NCAR-RAP Real-Time Weather Data

Output produced by METARs form (17 January 2018  22:23 UTC)
found at http://weather.rap.ucar.edu/surface/
 
Conditions at: KZPH observed 17 January 2018  22:35 UTC
Temperature: 10.5°C (51°F)
Dewpoint: 5.2°C (41°F) [RH = 70%]
Pressure (altimeter): 30.27 inches Hg (1025.1 mb)
Winds: from the NW (310 degrees) at 13 MPH (11 knots; 5.7 m/s)
gusting to 23 MPH (20 knots; 10.4 m/s)
Visibility: 10 or more miles (16+ km)
Ceiling: 4300 feet AGL
Clouds: broken clouds at 4300 feet AGL
overcast cloud deck at 6000 feet AGL
Present Weather: automated observation with no human augmentation;
there may or may not be significant weather present at this time
KZPH 172235Z AUTO 31011G20KT 10SM BKN043 OVC060 11/05 A3027 RMK AO2 T01050052

Conditions at: KZPH observed 17 January 2018  22:15 UTC
Temperature: 11.0°C (52°F)
Dewpoint: 5.0°C (41°F) [RH = 66%]
Pressure (altimeter): 30.27 inches Hg (1025.1 mb)
Winds: from the WNW (300 degrees) at 18 MPH (16 knots; 8.3 m/s)
gusting to 24 MPH (21 knots; 10.9 m/s)
Visibility: 10 or more miles (16+ km)
Ceiling: 4500 feet AGL
Clouds: overcast cloud deck at 4500 feet AGL
Present Weather: automated observation with no human augmentation;
there may or may not be significant weather present at this time
KZPH 172215Z AUTO 30016G21KT 10SM OVC045 11/05 A3027 RMK AO2 T01100050

Conditions at: KZPH observed 17 January 2018  21:55 UTC
Temperature: 11.8°C (53°F)
Dewpoint: 5.9°C (43°F) [RH = 67%]
Pressure (altimeter): 30.26 inches Hg (1024.8 mb)
Winds: from the WNW (290 degrees) at 18 MPH (16 knots; 8.3 m/s)
gusting to 28 MPH (24 knots; 12.5 m/s)
Visibility: 10 or more miles (16+ km)
Ceiling: 4500 feet AGL
Clouds: broken clouds at 4500 feet AGL
Present Weather: automated observation with no human augmentation;
there may or may not be significant weather present at this time
KZPH 172155Z AUTO 29016G24KT 10SM BKN045 12/06 A3026 RMK AO2 T01180059

Conditions at: KZPH observed 17 January 2018  21:35 UTC
Temperature: 13.1°C (56°F)
Dewpoint: 6.4°C (44°F) [RH = 64%]
Pressure (altimeter): 30.26 inches Hg (1024.8 mb)
Winds: from the W (280 degrees) at 21 MPH (18 knots; 9.4 m/s)
gusting to 26 MPH (23 knots; 12.0 m/s)
Visibility: 10 or more miles (16+ km)
Ceiling: at least 12,000 feet AGL
Clouds: scattered clouds at 3000 feet AGL
Present Weather: automated observation with no human augmentation;
there may or may not be significant weather present at this time
KZPH 172135Z AUTO 28018G23KT 10SM SCT030 13/06 A3026 RMK AO2 T01310064

Conditions at: KZPH observed 17 January 2018  21:15 UTC
Temperature: 14.3°C (58°F)
Dewpoint: 7.0°C (45°F) [RH = 61%]
Pressure (altimeter): 30.25 inches Hg (1024.5 mb)
Winds: from the W (280 degrees) at 17 MPH (15 knots; 7.8 m/s)
gusting to 26 MPH (23 knots; 12.0 m/s)
Visibility: 10 or more miles (16+ km)
Ceiling: 2800 feet AGL
Clouds: broken clouds at 2800 feet AGL
Present Weather: automated observation with no human augmentation;
there may or may not be significant weather present at this time
KZPH 172115Z AUTO 28015G23KT 10SM BKN028 14/07 A3025 RMK AO2 T01430070

Conditions at: KZPH observed 17 January 2018  20:55 UTC
Temperature: 15.5°C (60°F)
Dewpoint: 7.9°C (46°F) [RH = 61%]
Pressure (altimeter): 30.24 inches Hg (1024.1 mb)
Winds: from the NW (310 degrees) at 14 MPH (12 knots; 6.2 m/s)
gusting to 22 MPH (19 knots; 9.9 m/s)
Visibility: 10 or more miles (16+ km)
Ceiling: at least 12,000 feet AGL
Clouds: sky clear below 12,000 feet AGL
Present Weather: automated observation with no human augmentation;
there may or may not be significant weather present at this time
KZPH 172055Z AUTO 31012G19KT 10SM CLR 16/08 A3024 RMK AO2 T01550079

Conditions at: KZPH observed 17 January 2018  20:35 UTC
Temperature: 14.5°C (58°F)
Dewpoint: 7.9°C (46°F) [RH = 65%]
Pressure (altimeter): 30.25 inches Hg (1024.5 mb)
Winds: from the WNW (290 degrees) at 18 MPH (16 knots; 8.3 m/s)
gusting to 25 MPH (22 knots; 11.4 m/s)
Visibility: 10 or more miles (16+ km)
Ceiling: at least 12,000 feet AGL
Clouds: sky clear below 12,000 feet AGL
Present Weather: automated observation with no human augmentation;
there may or may not be significant weather present at this time
KZPH 172035Z AUTO 29016G22KT 10SM CLR 15/08 A3025 RMK AO2 T01450079

Conditions at: KZPH observed 17 January 2018  20:15 UTC
Temperature: 13.6°C (56°F)
Dewpoint: 7.7°C (46°F) [RH = 67%]
Pressure (altimeter): 30.25 inches Hg (1024.5 mb)
Winds: from the W (280 degrees) at 16 MPH (14 knots; 7.3 m/s)
gusting to 25 MPH (22 knots; 11.4 m/s)
Visibility: 10 or more miles (16+ km)
Ceiling: at least 12,000 feet AGL
Clouds: sky clear below 12,000 feet AGL
Present Weather: automated observation with no human augmentation;
there may or may not be significant weather present at this time
KZPH 172015Z AUTO 28014G22KT 10SM CLR 14/08 A3025 RMK AO2 T01360077

Conditions at: KZPH observed 17 January 2018  19:55 UTC
Temperature: 14.6°C (58°F)
Dewpoint: 8.1°C (47°F) [RH = 65%]
Pressure (altimeter): 30.25 inches Hg (1024.5 mb)
Winds: from the WNW (300 degrees) at 20 MPH (17 knots; 8.8 m/s)
gusting to 26 MPH (23 knots; 12.0 m/s)
Visibility: 10 or more miles (16+ km)
Ceiling: at least 12,000 feet AGL
Clouds: sky clear below 12,000 feet AGL
Present Weather: automated observation with no human augmentation;
there may or may not be significant weather present at this time
KZPH 171955Z AUTO 30017G23KT 10SM CLR 15/08 A3025 RMK AO2 T01460081

Conditions at: KZPH observed 17 January 2018  19:35 UTC
Temperature: 16.9°C (62°F)
Dewpoint: 9.1°C (48°F) [RH = 60%]
Pressure (altimeter): 30.23 inches Hg (1023.8 mb)
Winds: from the WNW (300 degrees) at 18 MPH (16 knots; 8.3 m/s)
gusting to 26 MPH (23 knots; 12.0 m/s)
Visibility: 10 or more miles (16+ km)
Ceiling: at least 12,000 feet AGL
Clouds: sky clear below 12,000 feet AGL
Present Weather: automated observation with no human augmentation;
there may or may not be significant weather present at this time
KZPH 171935Z AUTO 30016G23KT 10SM CLR 17/09 A3023 RMK AO2 T01690091

Conditions at: KZPH observed 17 January 2018  19:15 UTC
Temperature: 19.3°C (67°F)
Dewpoint: 10.0°C (50°F) [RH = 55%]
Pressure (altimeter): 30.23 inches Hg (1023.8 mb)
Winds: from the WNW (300 degrees) at 18 MPH (16 knots; 8.3 m/s)
gusting to 24 MPH (21 knots; 10.9 m/s)
Visibility: 10 or more miles (16+ km)
Ceiling: at least 12,000 feet AGL
Clouds: sky clear below 12,000 feet AGL
Present Weather: automated observation with no human augmentation;
there may or may not be significant weather present at this time
KZPH 171915Z AUTO 30016G21KT 10SM CLR 19/10 A3023 RMK AO2 T01930100

Conditions at: KZPH observed 17 January 2018  18:55 UTC
Temperature: 20.6°C (69°F)
Dewpoint: 8.7°C (48°F) [RH = 46%]
Pressure (altimeter): 30.22 inches Hg (1023.5 mb)
Winds: from the WNW (290 degrees) at 14 MPH (12 knots; 6.2 m/s)
gusting to 21 MPH (18 knots; 9.4 m/s)
Visibility: 10 or more miles (16+ km)
Ceiling: at least 12,000 feet AGL
Clouds: sky clear below 12,000 feet AGL
Present Weather: automated observation with no human augmentation;
there may or may not be significant weather present at this time
KZPH 171855Z AUTO 29012G18KT 10SM CLR 21/09 A3022 RMK AO2 T02060087

Conditions at: KZPH observed 17 January 2018  18:35 UTC
Temperature: 20.6°C (69°F)
Dewpoint: 8.9°C (48°F) [RH = 47%]
Pressure (altimeter): 30.23 inches Hg (1023.8 mb)
Winds: from the W (280 degrees) at 13 MPH (11 knots; 5.7 m/s)
Visibility: 10 or more miles (16+ km)
Ceiling: at least 12,000 feet AGL
Clouds: sky clear below 12,000 feet AGL
Present Weather: automated observation with no human augmentation;
there may or may not be significant weather present at this time
KZPH 171835Z AUTO 28011KT 10SM CLR 21/09 A3023 RMK AO2 T02060089

Conditions at: KZPH observed 17 January 2018  18:15 UTC
Temperature: 21.2°C (70°F)
Dewpoint: 9.5°C (49°F) [RH = 47%]
Pressure (altimeter): 30.25 inches Hg (1024.5 mb)
Winds: from the WNW (290 degrees) at 14 MPH (12 knots; 6.2 m/s)
Visibility: 10 or more miles (16+ km)
Ceiling: at least 12,000 feet AGL
Clouds: sky clear below 12,000 feet AGL
Present Weather: automated observation with no human augmentation;
there may or may not be significant weather present at this time
KZPH 171815Z AUTO 29012KT 10SM CLR 21/10 A3025 RMK AO2 T02120095

Conditions at: KZPH observed 17 January 2018  17:55 UTC
Temperature: 20.5°C (69°F)
Dewpoint: 9.2°C (49°F) [RH = 48%]
Pressure (altimeter): 30.26 inches Hg (1024.8 mb)
Winds: from the W (260 degrees) at 12 MPH (10 knots; 5.2 m/s)
gusting to 18 MPH (16 knots; 8.3 m/s)
Visibility: 10 or more miles (16+ km)
Ceiling: at least 12,000 feet AGL
Clouds: sky clear below 12,000 feet AGL
Present Weather: automated observation with no human augmentation;
there may or may not be significant weather present at this time
KZPH 171755Z AUTO 26010G16KT 10SM CLR 21/09 A3026 RMK AO2 T02050092 10205 20048

Conditions at: KZPH observed 17 January 2018  17:35 UTC
Temperature: 20.1°C (68°F)
Dewpoint: 9.1°C (48°F) [RH = 49%]
Pressure (altimeter): 30.27 inches Hg (1025.1 mb)
Winds: from the W (270 degrees) at 10 MPH (9 knots; 4.7 m/s)
Visibility: 10 or more miles (16+ km)
Ceiling: at least 12,000 feet AGL
Clouds: sky clear below 12,000 feet AGL
Present Weather: automated observation with no human augmentation;
there may or may not be significant weather present at this time
KZPH 171735Z AUTO 27009KT 10SM CLR 20/09 A3027 RMK AO2 T02010091

Conditions at: KZPH observed 17 January 2018  17:15 UTC
Temperature: 20.0°C (68°F)
Dewpoint: 9.2°C (49°F) [RH = 50%]
Pressure (altimeter): 30.28 inches Hg (1025.5 mb)
Winds: from the WNW (290 degrees) at 9 MPH (8 knots; 4.2 m/s)
Visibility: 10 or more miles (16+ km)
Ceiling: at least 12,000 feet AGL
Clouds: sky clear below 12,000 feet AGL
Present Weather: automated observation with no human augmentation;
there may or may not be significant weather present at this time
KZPH 171715Z AUTO 29008KT 10SM CLR 20/09 A3028 RMK AO2 T02000092

Conditions at: KZPH observed 17 January 2018  16:55 UTC
Temperature: 19.0°C (66°F)
Dewpoint: 8.9°C (48°F) [RH = 52%]
Pressure (altimeter): 30.29 inches Hg (1025.8 mb)
Winds: from the WNW (300 degrees) at 10 MPH (9 knots; 4.7 m/s)
Visibility: 10 or more miles (16+ km)
Ceiling: at least 12,000 feet AGL
Clouds: sky clear below 12,000 feet AGL
Present Weather: automated observation with no human augmentation;
there may or may not be significant weather present at this time
KZPH 171655Z AUTO 30009KT 10SM CLR 19/09 A3029 RMK AO2 T01900089

Conditions at: KZPH observed 17 January 2018  16:35 UTC
Temperature: 18.1°C (65°F)
Dewpoint: 10.1°C (50°F) [RH = 60%]
Pressure (altimeter): 30.30 inches Hg (1026.2 mb)
Winds: from the WNW (290 degrees) at 5 MPH (4 knots; 2.1 m/s)
Visibility: 10 or more miles (16+ km)
Ceiling: at least 12,000 feet AGL
Clouds: sky clear below 12,000 feet AGL
Present Weather: automated observation with no human augmentation;
there may or may not be significant weather present at this time
KZPH 171635Z AUTO 29004KT 10SM CLR 18/10 A3030 RMK AO2 T01810101

Conditions at: KZPH observed 17 January 2018  16:15 UTC
Temperature: 16.4°C (62°F)
Dewpoint: 10.2°C (50°F) [RH = 67%]
Pressure (altimeter): 30.30 inches Hg (1026.2 mb)
Winds: calm
Visibility: 10 or more miles (16+ km)
Ceiling: at least 12,000 feet AGL
Clouds: sky clear below 12,000 feet AGL
Present Weather: automated observation with no human augmentation;
there may or may not be significant weather present at this time
KZPH 171615Z AUTO 00000KT 10SM CLR 16/10 A3030 RMK AO2 T01640102

Conditions at: KZPH observed 17 January 2018  15:55 UTC
Temperature: 13.7°C (57°F)
Dewpoint: 12.0°C (54°F) [RH = 89%]
Pressure (altimeter): 30.30 inches Hg (1026.2 mb)
Winds: calm
Visibility: 10 or more miles (16+ km)
Ceiling: at least 12,000 feet AGL
Clouds: sky clear below 12,000 feet AGL
Present Weather: automated observation with no human augmentation;
there may or may not be significant weather present at this time
KZPH 171555Z AUTO 00000KT 10SM CLR 14/12 A3030 RMK AO2 T01370120

Conditions at: KZPH observed 17 January 2018  15:35 UTC
Temperature: 12.0°C (54°F)
Dewpoint: 11.5°C (53°F) [RH = 97%]
Pressure (altimeter): 30.29 inches Hg (1025.8 mb)
Winds: calm
Visibility: 10 or more miles (16+ km)
Ceiling: at least 12,000 feet AGL
Clouds: sky clear below 12,000 feet AGL
Present Weather: automated observation with no human augmentation;
there may or may not be significant weather present at this time
KZPH 171535Z AUTO 00000KT 10SM CLR 12/12 A3029 RMK AO2 T01200115

Conditions at: KZPH observed 17 January 2018  15:15 UTC
Temperature: 10.8°C (51°F)
Dewpoint: 10.7°C (51°F) [RH = 99%]
Pressure (altimeter): 30.29 inches Hg (1025.8 mb)
Winds: calm
Visibility: 10 or more miles (16+ km)
Ceiling: at least 12,000 feet AGL
Clouds: sky clear below 12,000 feet AGL
Present Weather: automated observation with no human augmentation;
there may or may not be significant weather present at this time
KZPH 171515Z AUTO 00000KT 10SM CLR 11/11 A3029 RMK AO2 T01080107

Conditions at: KZPH observed 17 January 2018  14:55 UTC
Temperature: 9.9°C (50°F)
Dewpoint: 9.9°C (50°F) [RH = 100%]
Pressure (altimeter): 30.29 inches Hg (1025.8 mb)
Winds: calm
Visibility: 10 or more miles (16+ km)
Ceiling: at least 12,000 feet AGL
Clouds: sky clear below 12,000 feet AGL
Present Weather: automated observation with no human augmentation;
there may or may not be significant weather present at this time
KZPH 171455Z AUTO 00000KT 10SM CLR 10/10 A3029 RMK AO2 T00990099

Conditions at: KZPH observed 17 January 2018  14:35 UTC
Temperature: 8.7°C (48°F)
Dewpoint: 8.7°C (48°F) [RH = 100%]
Pressure (altimeter): 30.29 inches Hg (1025.8 mb)
Winds: calm
Visibility: 4 miles (6 km)
Ceiling: at least 12,000 feet AGL
Clouds: sky clear below 12,000 feet AGL
Present Weather: BR  (mist)
KZPH 171435Z AUTO 00000KT 4SM BR CLR 09/09 A3029 RMK AO2 T00870087

Conditions at: KZPH observed 17 January 2018  14:15 UTC
Temperature: 7.3°C (45°F)
Dewpoint: 7.3°C (45°F) [RH = 100%]
Pressure (altimeter): 30.29 inches Hg (1025.8 mb)
Winds: calm
Visibility: 2.50 miles (4.02 km)
Ceiling: at least 12,000 feet AGL
Clouds: sky clear below 12,000 feet AGL
Present Weather: BR  (mist)
KZPH 171415Z AUTO 00000KT 2 1/2SM BR CLR 07/07 A3029 RMK AO2 T00730073

Conditions at: KZPH observed 17 January 2018  13:55 UTC
Temperature: 6.5°C (44°F)
Dewpoint: 6.5°C (44°F) [RH = 100%]
Pressure (altimeter): 30.28 inches Hg (1025.5 mb)
Winds: calm
Visibility: 0.50 miles (0.80 km)
Ceiling: 100 feet AGL
Clouds: broken clouds at 100 feet AGL
Present Weather: FG  (fog)
KZPH 171355Z AUTO 00000KT 1/2SM FG BKN001 07/07 A3028 RMK AO2 T00650065

Conditions at: KZPH observed 17 January 2018  13:35 UTC
Temperature: 5.2°C (41°F)
Dewpoint: 5.2°C (41°F) [RH = 100%]
Pressure (altimeter): 30.28 inches Hg (1025.5 mb)
Winds: calm
Visibility: 0.25 miles (0.40 km)
Ceiling: 100 feet AGL
Clouds: broken clouds at 100 feet AGL
Present Weather: FG  (fog)
KZPH 171335Z AUTO 00000KT 1/4SM FG BKN001 05/05 A3028 RMK AO2 T00520052

Conditions at: KZPH observed 17 January 2018  13:15 UTC
Temperature: 5.0°C (41°F)
Dewpoint: 5.0°C (41°F) [RH = 100%]
Pressure (altimeter): 30.28 inches Hg (1025.5 mb)
Winds: calm
Visibility: 0.25 miles (0.40 km)
Ceiling: indefinite ceiling with vertical visibility of 0 feet AGL
Clouds: obscured sky
Present Weather: FG  (fog)
KZPH 171315Z AUTO 00000KT M1/4SM FG VV000 05/05 A3028 RMK AO2 T00500050

Conditions at: KZPH observed 17 January 2018  12:55 UTC
Temperature: 5.7°C (42°F)
Dewpoint: 5.7°C (42°F) [RH = 100%]
Pressure (altimeter): 30.28 inches Hg (1025.5 mb)
Winds: calm
Visibility: 0.25 miles (0.40 km)
Ceiling: indefinite ceiling with vertical visibility of 200 feet AGL
Clouds: obscured sky
Present Weather: FG  (fog)
KZPH 171255Z AUTO 00000KT 1/4SM FG VV002 06/06 A3028 RMK AO2 T00570057

Conditions at: KZPH observed 17 January 2018  12:35 UTC
Temperature: 5.5°C (42°F)
Dewpoint: 5.5°C (42°F) [RH = 100%]
Pressure (altimeter): 30.27 inches Hg (1025.1 mb)
Winds: calm
Visibility: 0.25 miles (0.40 km)
Ceiling: 100 feet AGL
Clouds: broken clouds at 100 feet AGL
Present Weather: FG  (fog)
KZPH 171235Z AUTO 00000KT 1/4SM FG BKN001 06/06 A3027 RMK AO2 T00550055

Conditions at: KZPH observed 17 January 2018  12:15 UTC
Temperature: 5.6°C (42°F)
Dewpoint: 5.6°C (42°F) [RH = 100%]
Pressure (altimeter): 30.26 inches Hg (1024.8 mb)
Winds: calm
Visibility: 0.25 miles (0.40 km)
Ceiling: 100 feet AGL
Clouds: overcast cloud deck at 100 feet AGL
Present Weather: FG  (fog)
KZPH 171215Z AUTO 00000KT 1/4SM FG OVC001 06/06 A3026 RMK AO2 T00560056

Conditions at: KZPH observed 17 January 2018  11:55 UTC
Temperature: 6.1°C (43°F)
Dewpoint: 6.1°C (43°F) [RH = 100%]
Pressure (altimeter): 30.26 inches Hg (1024.8 mb)
Winds: calm
Visibility: 0.25 miles (0.40 km)
Ceiling: 100 feet AGL
Clouds: overcast cloud deck at 100 feet AGL
Present Weather: FG  (fog)
KZPH 171155Z AUTO 00000KT 1/4SM FG OVC001 06/06 A3026 RMK AO2 T00610061 10090 20059

Conditions at: KZPH observed 17 January 2018  11:35 UTC
Temperature: 6.3°C (43°F)
Dewpoint: 6.3°C (43°F) [RH = 100%]
Pressure (altimeter): 30.26 inches Hg (1024.8 mb)
Winds: calm
Visibility: 0.25 miles (0.40 km)
Ceiling: 100 feet AGL
Clouds: broken clouds at 100 feet AGL
Present Weather: FG  (fog)
KZPH 171135Z AUTO 00000KT 1/4SM FG BKN001 06/06 A3026 RMK AO2 T00630063

Conditions at: KZPH observed 17 January 2018  11:15 UTC
Temperature: 6.4°C (44°F)
Dewpoint: 6.4°C (44°F) [RH = 100%]
Pressure (altimeter): 30.25 inches Hg (1024.5 mb)
Winds: calm
Visibility: 0.25 miles (0.40 km)
Ceiling: 100 feet AGL
Clouds: overcast cloud deck at 100 feet AGL
Present Weather: FG  (fog)
KZPH 171115Z AUTO 00000KT 1/4SM FG OVC001 06/06 A3025 RMK AO2 T00640064

Conditions at: KZPH observed 17 January 2018  10:55 UTC
Temperature: 6.6°C (44°F)
Dewpoint: 6.6°C (44°F) [RH = 100%]
Pressure (altimeter): 30.26 inches Hg (1024.8 mb)
Winds: calm
Visibility: 0.25 miles (0.40 km)
Ceiling: 100 feet AGL
Clouds: broken clouds at 100 feet AGL
Present Weather: FG  (fog)
KZPH 171055Z AUTO 00000KT 1/4SM FG BKN001 07/07 A3026 RMK AO2 T00660066

Conditions at: KZPH observed 17 January 2018  10:35 UTC
Temperature: 6.6°C (44°F)
Dewpoint: 6.5°C (44°F) [RH = 99%]
Pressure (altimeter): 30.25 inches Hg (1024.5 mb)
Winds: calm
Visibility: 0.25 miles (0.40 km)
Ceiling: indefinite ceiling with vertical visibility of 200 feet AGL
Clouds: obscured sky
Present Weather: FG  (fog)
KZPH 171035Z AUTO 00000KT 1/4SM FG VV002 07/07 A3025 RMK AO2 T00660065

Conditions at: KZPH observed 17 January 2018  10:15 UTC
Temperature: 6.5°C (44°F)
Dewpoint: 6.5°C (44°F) [RH = 100%]
Pressure (altimeter): 30.26 inches Hg (1024.8 mb)
Winds: calm
Visibility: 0.25 miles (0.40 km)
Ceiling: indefinite ceiling with vertical visibility of 200 feet AGL
Clouds: obscured sky
Present Weather: FG  (fog)
KZPH 171015Z AUTO 00000KT 1/4SM FG VV002 07/07 A3026 RMK AO2 T00650065

Conditions at: KZPH observed 17 January 2018  09:55 UTC
Temperature: 6.5°C (44°F)
Dewpoint: 6.5°C (44°F) [RH = 100%]
Pressure (altimeter): 30.25 inches Hg (1024.5 mb)
Winds: calm
Visibility: 0.25 miles (0.40 km)
Ceiling: indefinite ceiling with vertical visibility of 200 feet AGL
Clouds: obscured sky
Present Weather: FG  (fog)
KZPH 170955Z AUTO 00000KT 1/4SM FG VV002 07/07 A3025 RMK AO2 T00650065

Conditions at: KZPH observed 17 January 2018  09:35 UTC
Temperature: 6.5°C (44°F)
Dewpoint: 6.5°C (44°F) [RH = 100%]
Pressure (altimeter): 30.25 inches Hg (1024.5 mb)
Winds: calm
Visibility: 0.25 miles (0.40 km)
Ceiling: 100 feet AGL
Clouds: broken clouds at 100 feet AGL
Present Weather: FG  (fog)
KZPH 170935Z AUTO 00000KT 1/4SM FG BKN001 07/07 A3025 RMK AO2 T00650065

Conditions at: KZPH observed 17 January 2018  09:15 UTC
Temperature: 7.0°C (45°F)
Dewpoint: 7.0°C (45°F) [RH = 100%]
Pressure (altimeter): 30.25 inches Hg (1024.5 mb)
Winds: calm
Visibility: 0.25 miles (0.40 km)
Ceiling: indefinite ceiling with vertical visibility of 200 feet AGL
Clouds: obscured sky
Present Weather: FG  (fog)
KZPH 170915Z AUTO 00000KT 1/4SM FG VV002 07/07 A3025 RMK AO2 T00700070

Conditions at: KZPH observed 17 January 2018  08:55 UTC
Temperature: 7.2°C (45°F)
Dewpoint: 7.1°C (45°F) [RH = 99%]
Pressure (altimeter): 30.25 inches Hg (1024.5 mb)
Winds: calm
Visibility: 2.50 miles (4.02 km)
Ceiling: at least 12,000 feet AGL
Clouds: sky clear below 12,000 feet AGL
Present Weather: BR  (mist)
KZPH 170855Z AUTO 00000KT 2 1/2SM BR CLR 07/07 A3025 RMK AO2 T00720071

Conditions at: KZPH observed 17 January 2018  08:35 UTC
Temperature: 7.2°C (45°F)
Dewpoint: 7.1°C (45°F) [RH = 99%]
Pressure (altimeter): 30.25 inches Hg (1024.5 mb)
Winds: calm
Visibility: 0.25 miles (0.40 km)
Ceiling: indefinite ceiling with vertical visibility of 200 feet AGL
Clouds: obscured sky
Present Weather: FG  (fog)
KZPH 170835Z AUTO 00000KT 1/4SM FG VV002 07/07 A3025 RMK AO2 T00720071

Conditions at: KZPH observed 17 January 2018  08:15 UTC
Temperature: 7.7°C (46°F)
Dewpoint: 7.6°C (46°F) [RH = 99%]
Pressure (altimeter): 30.25 inches Hg (1024.5 mb)
Winds: calm
Visibility: 2.00 miles (3.22 km)
Ceiling: at least 12,000 feet AGL
Clouds: sky clear below 12,000 feet AGL
Present Weather: BR  (mist)
KZPH 170815Z AUTO 00000KT 2SM BR CLR 08/08 A3025 RMK AO2 T00770076

Conditions at: KZPH observed 17 January 2018  07:55 UTC
Temperature: 7.8°C (46°F)
Dewpoint: 7.7°C (46°F) [RH = 99%]
Pressure (altimeter): 30.25 inches Hg (1024.5 mb)
Winds: calm
Visibility: 0.25 miles (0.40 km)
Ceiling: indefinite ceiling with vertical visibility of 200 feet AGL
Clouds: obscured sky
Present Weather: FG  (fog)
KZPH 170755Z AUTO 00000KT 1/4SM FG VV002 08/08 A3025 RMK AO2 T00780077

Conditions at: KZPH observed 17 January 2018  07:35 UTC
Temperature: 8.0°C (46°F)
Dewpoint: 8.0°C (46°F) [RH = 100%]
Pressure (altimeter): 30.26 inches Hg (1024.8 mb)
Winds: from the NNE (30 degrees) at 3 MPH (3 knots; 1.6 m/s)
Visibility: 3 miles (5 km)
Ceiling: at least 12,000 feet AGL
Clouds: sky clear below 12,000 feet AGL
Present Weather: BR  (mist)
KZPH 170735Z AUTO 03003KT 3SM BR CLR 08/08 A3026 RMK AO2 T00800080

Conditions at: KZPH observed 17 January 2018  07:15 UTC
Temperature: 7.8°C (46°F)
Dewpoint: 7.6°C (46°F) [RH = 99%]
Pressure (altimeter): 30.27 inches Hg (1025.1 mb)
Winds: from the NE (40 degrees) at 3 MPH (3 knots; 1.6 m/s)
Visibility: 1.00 miles (1.61 km)
Ceiling: indefinite ceiling with vertical visibility of 700 feet AGL
Clouds: obscured sky
Present Weather: BR  (mist)
KZPH 170715Z AUTO 04003KT 1SM BR VV007 08/08 A3027 RMK AO2 T00780076

Conditions at: KZPH observed 17 January 2018  06:55 UTC
Temperature: 9.0°C (48°F)
Dewpoint: 8.8°C (48°F) [RH = 99%]
Pressure (altimeter): 30.28 inches Hg (1025.5 mb)
Winds: calm
Visibility: 10 or more miles (16+ km)
Ceiling: at least 12,000 feet AGL
Clouds: sky clear below 12,000 feet AGL
Present Weather: automated observation with no human augmentation;
there may or may not be significant weather present at this time
KZPH 170655Z AUTO 00000KT 10SM CLR 09/09 A3028 RMK AO2 T00900088

Conditions at: KZPH observed 17 January 2018  06:35 UTC
Temperature: 8.0°C (46°F)
Dewpoint: 7.6°C (46°F) [RH = 97%]
Pressure (altimeter): 30.27 inches Hg (1025.1 mb)
Winds: from the NE (40 degrees) at 5 MPH (4 knots; 2.1 m/s)
Visibility: 7 miles (11 km)
Ceiling: at least 12,000 feet AGL
Clouds: sky clear below 12,000 feet AGL
Present Weather: automated observation with no human augmentation;
there may or may not be significant weather present at this time
KZPH 170635Z AUTO 04004KT 7SM CLR 08/08 A3027 RMK AO2 T00800076

Conditions at: KZPH observed 17 January 2018  06:15 UTC
Temperature: 8.9°C (48°F)
Dewpoint: 8.7°C (48°F) [RH = 99%]
Pressure (altimeter): 30.28 inches Hg (1025.5 mb)
Winds: calm
Visibility: 7 miles (11 km)
Ceiling: at least 12,000 feet AGL
Clouds: sky clear below 12,000 feet AGL
Present Weather: automated observation with no human augmentation;
there may or may not be significant weather present at this time
KZPH 170615Z AUTO 00000KT 7SM CLR 09/09 A3028 RMK AO2 T00890087

Conditions at: KZPH observed 17 January 2018  05:55 UTC
Temperature: 8.6°C (47°F)
Dewpoint: 8.3°C (47°F) [RH = 98%]
Pressure (altimeter): 30.29 inches Hg (1025.8 mb)
Winds: calm
Visibility: 10 or more miles (16+ km)
Ceiling: at least 12,000 feet AGL
Clouds: sky clear below 12,000 feet AGL
Present Weather: automated observation with no human augmentation;
there may or may not be significant weather present at this time
KZPH 170555Z AUTO 00000KT 10SM CLR 09/08 A3029 RMK AO2 T00860083 10155 20080 402270048

Conditions at: KZPH observed 17 January 2018  05:35 UTC
Temperature: 8.0°C (46°F)
Dewpoint: 7.4°C (45°F) [RH = 96%]
Pressure (altimeter): 30.29 inches Hg (1025.8 mb)
Winds: from the N (360 degrees) at 3 MPH (3 knots; 1.6 m/s)
Visibility: 10 or more miles (16+ km)
Ceiling: at least 12,000 feet AGL
Clouds: sky clear below 12,000 feet AGL
Present Weather: automated observation with no human augmentation;
there may or may not be significant weather present at this time
KZPH 170535Z AUTO 36003KT 10SM CLR 08/07 A3029 RMK AO2 T00800074

Conditions at: KZPH observed 17 January 2018  05:15 UTC
Temperature: 9.3°C (49°F)
Dewpoint: 8.5°C (47°F) [RH = 95%]
Pressure (altimeter): 30.29 inches Hg (1025.8 mb)
Winds: calm
Visibility: 10 or more miles (16+ km)
Ceiling: at least 12,000 feet AGL
Clouds: sky clear below 12,000 feet AGL
Present Weather: automated observation with no human augmentation;
there may or may not be significant weather present at this time
KZPH 170515Z AUTO 00000KT 10SM CLR 09/09 A3029 RMK AO2 T00930085

Conditions at: KZPH observed 17 January 2018  04:55 UTC
Temperature: 11.3°C (52°F)
Dewpoint: 9.9°C (50°F) [RH = 91%]
Pressure (altimeter): 30.30 inches Hg (1026.2 mb)
Winds: calm
Visibility: 10 or more miles (16+ km)
Ceiling: at least 12,000 feet AGL
Clouds: sky clear below 12,000 feet AGL
Present Weather: automated observation with no human augmentation;
there may or may not be significant weather present at this time
KZPH 170455Z AUTO 00000KT 10SM CLR 11/10 A3030 RMK AO2 T01130099

Conditions at: KZPH observed 17 January 2018  04:35 UTC
Temperature: 10.8°C (51°F)
Dewpoint: 9.2°C (49°F) [RH = 90%]
Pressure (altimeter): 30.30 inches Hg (1026.2 mb)
Winds: calm
Visibility: 10 or more miles (16+ km)
Ceiling: at least 12,000 feet AGL
Clouds: sky clear below 12,000 feet AGL
Present Weather: automated observation with no human augmentation;
there may or may not be significant weather present at this time
KZPH 170435Z AUTO 00000KT 10SM CLR 11/09 A3030 RMK AO2 T01080092

Conditions at: KZPH observed 17 January 2018  04:15 UTC
Temperature: 12.0°C (54°F)
Dewpoint: 9.7°C (49°F) [RH = 86%]
Pressure (altimeter): 30.30 inches Hg (1026.2 mb)
Winds: calm
Visibility: 10 or more miles (16+ km)
Ceiling: at least 12,000 feet AGL
Clouds: sky clear below 12,000 feet AGL
Present Weather: automated observation with no human augmentation;
there may or may not be significant weather present at this time
KZPH 170415Z AUTO 00000KT 10SM CLR 12/10 A3030 RMK AO2 T01200097

Conditions at: KZPH observed 17 January 2018  03:55 UTC
Temperature: 12.5°C (54°F)
Dewpoint: 9.8°C (50°F) [RH = 84%]
Pressure (altimeter): 30.30 inches Hg (1026.2 mb)
Winds: from the E (80 degrees) at 5 MPH (4 knots; 2.1 m/s)
Visibility: 10 or more miles (16+ km)
Ceiling: at least 12,000 feet AGL
Clouds: sky clear below 12,000 feet AGL
Present Weather: automated observation with no human augmentation;
there may or may not be significant weather present at this time
KZPH 170355Z AUTO 08004KT 10SM CLR 13/10 A3030 RMK AO2 T01250098

Conditions at: KZPH observed 17 January 2018  03:35 UTC
Temperature: 12.8°C (55°F)
Dewpoint: 9.9°C (50°F) [RH = 83%]
Pressure (altimeter): 30.30 inches Hg (1026.2 mb)
Winds: from the E (90 degrees) at 5 MPH (4 knots; 2.1 m/s)
Visibility: 10 or more miles (16+ km)
Ceiling: at least 12,000 feet AGL
Clouds: sky clear below 12,000 feet AGL
Present Weather: automated observation with no human augmentation;
there may or may not be significant weather present at this time
KZPH 170335Z AUTO 09004KT 10SM CLR 13/10 A3030 RMK AO2 T01280099

Conditions at: KZPH observed 17 January 2018  03:15 UTC
Temperature: 13.0°C (55°F)
Dewpoint: 9.8°C (50°F) [RH = 81%]
Pressure (altimeter): 30.31 inches Hg (1026.5 mb)
Winds: from the E (80 degrees) at 5 MPH (4 knots; 2.1 m/s)
Visibility: 10 or more miles (16+ km)
Ceiling: at least 12,000 feet AGL
Clouds: sky clear below 12,000 feet AGL
Present Weather: automated observation with no human augmentation;
there may or may not be significant weather present at this time
KZPH 170315Z AUTO 08004KT 10SM CLR 13/10 A3031 RMK AO2 T01300098

Conditions at: KZPH observed 17 January 2018  02:55 UTC
Temperature: 13.6°C (56°F)
Dewpoint: 9.7°C (49°F) [RH = 77%]
Pressure (altimeter): 30.31 inches Hg (1026.5 mb)
Winds: from the ENE (70 degrees) at 6 MPH (5 knots; 2.6 m/s)
Visibility: 10 or more miles (16+ km)
Ceiling: at least 12,000 feet AGL
Clouds: sky clear below 12,000 feet AGL
Present Weather: automated observation with no human augmentation;
there may or may not be significant weather present at this time
KZPH 170255Z AUTO 07005KT 10SM CLR 14/10 A3031 RMK AO2 T01360097

Conditions at: KZPH observed 17 January 2018  02:35 UTC
Temperature: 13.7°C (57°F)
Dewpoint: 9.4°C (49°F) [RH = 75%]
Pressure (altimeter): 30.31 inches Hg (1026.5 mb)
Winds: from the ENE (70 degrees) at 7 MPH (6 knots; 3.1 m/s)
Visibility: 10 or more miles (16+ km)
Ceiling: at least 12,000 feet AGL
Clouds: sky clear below 12,000 feet AGL
Present Weather: automated observation with no human augmentation;
there may or may not be significant weather present at this time
KZPH 170235Z AUTO 07006KT 10SM CLR 14/09 A3031 RMK AO2 T01370094

Conditions at: KZPH observed 17 January 2018  02:15 UTC
Temperature: 14.1°C (57°F)
Dewpoint: 9.1°C (48°F) [RH = 72%]
Pressure (altimeter): 30.31 inches Hg (1026.5 mb)
Winds: from the ENE (60 degrees) at 7 MPH (6 knots; 3.1 m/s)
Visibility: 10 or more miles (16+ km)
Ceiling: at least 12,000 feet AGL
Clouds: sky clear below 12,000 feet AGL
Present Weather: automated observation with no human augmentation;
there may or may not be significant weather present at this time
KZPH 170215Z AUTO 06006KT 10SM CLR 14/09 A3031 RMK AO2 T01410091

Conditions at: KZPH observed 17 January 2018  01:55 UTC
Temperature: 12.7°C (55°F)
Dewpoint: 8.1°C (47°F) [RH = 74%]
Pressure (altimeter): 30.30 inches Hg (1026.2 mb)
Winds: from the ENE (60 degrees) at 9 MPH (8 knots; 4.2 m/s)
Visibility: 10 or more miles (16+ km)
Ceiling: at least 12,000 feet AGL
Clouds: sky clear below 12,000 feet AGL
Present Weather: automated observation with no human augmentation;
there may or may not be significant weather present at this time
KZPH 170155Z AUTO 06008KT 10SM CLR 13/08 A3030 RMK AO2 T01270081

Conditions at: KZPH observed 17 January 2018  01:35 UTC
Temperature: 11.1°C (52°F)
Dewpoint: 7.9°C (46°F) [RH = 81%]
Pressure (altimeter): 30.30 inches Hg (1026.2 mb)
Winds: from the NE (40 degrees) at 5 MPH (4 knots; 2.1 m/s)
Visibility: 10 or more miles (16+ km)
Ceiling: at least 12,000 feet AGL
Clouds: sky clear below 12,000 feet AGL
Present Weather: automated observation with no human augmentation;
there may or may not be significant weather present at this time
KZPH 170135Z AUTO 04004KT 10SM CLR 11/08 A3030 RMK AO2 T01110079

Conditions at: KZPH observed 17 January 2018  01:15 UTC
Temperature: 12.2°C (54°F)
Dewpoint: 8.1°C (47°F) [RH = 76%]
Pressure (altimeter): 30.29 inches Hg (1025.8 mb)
Winds: calm
Visibility: 10 or more miles (16+ km)
Ceiling: at least 12,000 feet AGL
Clouds: sky clear below 12,000 feet AGL
Present Weather: automated observation with no human augmentation;
there may or may not be significant weather present at this time
KZPH 170115Z AUTO 00000KT 10SM CLR 12/08 A3029 RMK AO2 T01220081

Conditions at: KZPH observed 17 January 2018  00:55 UTC
Temperature: 12.6°C (55°F)
Dewpoint: 8.1°C (47°F) [RH = 74%]
Pressure (altimeter): 30.30 inches Hg (1026.2 mb)
Winds: calm
Visibility: 10 or more miles (16+ km)
Ceiling: at least 12,000 feet AGL
Clouds: sky clear below 12,000 feet AGL
Present Weather: automated observation with no human augmentation;
there may or may not be significant weather present at this time
KZPH 170055Z AUTO 00000KT 10SM CLR 13/08 A3030 RMK AO2 T01260081

Conditions at: KZPH observed 17 January 2018  00:35 UTC
Temperature: 13.4°C (56°F)
Dewpoint: 8.8°C (48°F) [RH = 74%]
Pressure (altimeter): 30.29 inches Hg (1025.8 mb)
Winds: calm
Visibility: 10 or more miles (16+ km)
Ceiling: at least 12,000 feet AGL
Clouds: sky clear below 12,000 feet AGL
Present Weather: automated observation with no human augmentation;
there may or may not be significant weather present at this time
KZPH 170035Z AUTO 00000KT 10SM CLR 13/09 A3029 RMK AO2 T01340088

Conditions at: KZPH observed 16 January 2018  23:55 UTC
Temperature: 15.5°C (60°F)
Dewpoint: 8.1°C (47°F) [RH = 61%]
Pressure (altimeter): 30.28 inches Hg (1025.5 mb)
Winds: calm
Visibility: 10 or more miles (16+ km)
Ceiling: at least 12,000 feet AGL
Clouds: sky clear below 12,000 feet AGL
Present Weather: automated observation with no human augmentation;
there may or may not be significant weather present at this time
KZPH 162355Z AUTO 00000KT 10SM CLR 16/08 A3028 RMK AO2 T01550081 10227 20153

Conditions at: KZPH observed 16 January 2018  23:35 UTC
Temperature: 16.3°C (61°F)
Dewpoint: 7.9°C (46°F) [RH = 57%]
Pressure (altimeter): 30.28 inches Hg (1025.5 mb)
Winds: from the NNE (30 degrees) at 3 MPH (3 knots; 1.6 m/s)
Visibility: 10 or more miles (16+ km)
Ceiling: at least 12,000 feet AGL
Clouds: sky clear below 12,000 feet AGL
Present Weather: automated observation with no human augmentation;
there may or may not be significant weather present at this time
KZPH 162335Z AUTO 03003KT 10SM CLR 16/08 A3028 RMK AO2 T01630079

Conditions at: KZPH observed 16 January 2018  23:15 UTC
Temperature: 17.9°C (64°F)
Dewpoint: 7.6°C (46°F) [RH = 51%]
Pressure (altimeter): 30.28 inches Hg (1025.5 mb)
Winds: from the NNE (20 degrees) at 5 MPH (4 knots; 2.1 m/s)
Visibility: 10 or more miles (16+ km)
Ceiling: at least 12,000 feet AGL
Clouds: sky clear below 12,000 feet AGL
Present Weather: automated observation with no human augmentation;
there may or may not be significant weather present at this time
KZPH 162315Z AUTO 02004KT 10SM CLR 18/08 A3028 RMK AO2 T01790076

Conditions at: KZPH observed 16 January 2018  22:55 UTC
Temperature: 19.1°C (66°F)
Dewpoint: 7.8°C (46°F) [RH = 48%]
Pressure (altimeter): 30.29 inches Hg (1025.8 mb)
Winds: from the NNE (20 degrees) at 6 MPH (5 knots; 2.6 m/s)
Visibility: 10 or more miles (16+ km)
Ceiling: at least 12,000 feet AGL
Clouds: scattered clouds at 7000 feet AGL
Present Weather: automated observation with no human augmentation;
there may or may not be significant weather present at this time
KZPH 162255Z AUTO 02005KT 10SM SCT070 19/08 A3029 RMK AO2 T01910078

Conditions at: KZPH observed 16 January 2018  22:35 UTC
Temperature: 20.0°C (68°F)
Dewpoint: 7.5°C (46°F) [RH = 44%]
Pressure (altimeter): 30.29 inches Hg (1025.8 mb)
Winds: from the NNE (20 degrees) at 9 MPH (8 knots; 4.2 m/s)
Visibility: 10 or more miles (16+ km)
Ceiling: at least 12,000 feet AGL
Clouds: scattered clouds at 7000 feet AGL
Present Weather: automated observation with no human augmentation;
there may or may not be significant weather present at this time
KZPH 162235Z AUTO 02008KT 10SM SCT070 20/08 A3029 RMK AO2 T02000075

Conditions at: KZPH observed 16 January 2018  22:15 UTC
Temperature: 20.5°C (69°F)
Dewpoint: 7.4°C (45°F) [RH = 43%]
Pressure (altimeter): 30.29 inches Hg (1025.8 mb)
Winds: from the NNE (30 degrees) at 8 MPH (7 knots; 3.6 m/s)
Visibility: 10 or more miles (16+ km)
Ceiling: at least 12,000 feet AGL
Clouds: sky clear below 12,000 feet AGL
Present Weather: automated observation with no human augmentation;
there may or may not be significant weather present at this time
KZPH 162215Z AUTO 03007KT 10SM CLR 21/07 A3029 RMK AO2 T02050074

Conditions at: KZPH observed 16 January 2018  21:55 UTC
Temperature: 21.1°C (70°F)
Dewpoint: 7.6°C (46°F) [RH = 42%]
Pressure (altimeter): 30.28 inches Hg (1025.5 mb)
Winds: from the N (350 degrees) at 3 MPH (3 knots; 1.6 m/s)
Visibility: 10 or more miles (16+ km)
Ceiling: at least 12,000 feet AGL
Clouds: sky clear below 12,000 feet AGL
Present Weather: automated observation with no human augmentation;
there may or may not be significant weather present at this time
KZPH 162155Z AUTO 35003KT 10SM CLR 21/08 A3028 RMK AO2 T02110076

Conditions at: KZPH observed 16 January 2018  21:35 UTC
Temperature: 21.5°C (71°F)
Dewpoint: 7.3°C (45°F) [RH = 40%]
Pressure (altimeter): 30.28 inches Hg (1025.5 mb)
Winds: from the N (10 degrees) at 9 MPH (8 knots; 4.2 m/s)
Visibility: 10 or more miles (16+ km)
Ceiling: at least 12,000 feet AGL
Clouds: sky clear below 12,000 feet AGL
Present Weather: automated observation with no human augmentation;
there may or may not be significant weather present at this time
KZPH 162135Z AUTO 01008KT 10SM CLR 22/07 A3028 RMK AO2 T02150073

Conditions at: KZPH observed 16 January 2018  21:15 UTC
Temperature: 21.5°C (71°F)
Dewpoint: 7.5°C (46°F) [RH = 40%]
Pressure (altimeter): 30.28 inches Hg (1025.5 mb)
Winds: from the N (350 degrees) at 7 MPH (6 knots; 3.1 m/s)
Visibility: 10 or more miles (16+ km)
Ceiling: at least 12,000 feet AGL
Clouds: sky clear below 12,000 feet AGL
Present Weather: automated observation with no human augmentation;
there may or may not be significant weather present at this time
KZPH 162115Z AUTO 35006KT 10SM CLR 22/08 A3028 RMK AO2 T02150075

Conditions at: KZPH observed 16 January 2018  20:55 UTC
Temperature: 20.4°C (69°F)
Dewpoint: 7.7°C (46°F) [RH = 44%]
Pressure (altimeter): 30.29 inches Hg (1025.8 mb)
Winds: from the N (350 degrees) at 7 MPH (6 knots; 3.1 m/s)
Visibility: 10 or more miles (16+ km)
Ceiling: at least 12,000 feet AGL
Clouds: sky clear below 12,000 feet AGL
Present Weather: automated observation with no human augmentation;
there may or may not be significant weather present at this time
KZPH 162055Z AUTO 35006KT 10SM CLR 20/08 A3029 RMK AO2 T02040077

Conditions at: KZPH observed 16 January 2018  20:35 UTC
Temperature: 21.7°C (71°F)
Dewpoint: 7.9°C (46°F) [RH = 41%]
Pressure (altimeter): 30.29 inches Hg (1025.8 mb)
Winds: from the N (10 degrees) at 8 MPH (7 knots; 3.6 m/s)
Visibility: 10 or more miles (16+ km)
Ceiling: at least 12,000 feet AGL
Clouds: scattered clouds at 5500 feet AGL
scattered clouds at 7500 feet AGL
Present Weather: automated observation with no human augmentation;
there may or may not be significant weather present at this time
KZPH 162035Z AUTO 01007KT 10SM SCT055 SCT075 22/08 A3029 RMK AO2 T02170079

Conditions at: KZPH observed 16 January 2018  20:15 UTC
Temperature: 22.6°C (73°F)
Dewpoint: 7.4°C (45°F) [RH = 38%]
Pressure (altimeter): 30.29 inches Hg (1025.8 mb)
Winds: from the E (80 degrees) at 3 MPH (3 knots; 1.6 m/s)
Visibility: 10 or more miles (16+ km)
Ceiling: 5500 feet AGL
Clouds: broken clouds at 5500 feet AGL
Present Weather: automated observation with no human augmentation;
there may or may not be significant weather present at this time
KZPH 162015Z AUTO 08003KT 10SM BKN055 23/07 A3029 RMK AO2 T02260074

Conditions at: KZPH observed 16 January 2018  19:55 UTC
Temperature: 22.4°C (72°F)
Dewpoint: 7.3°C (45°F) [RH = 38%]
Pressure (altimeter): 30.30 inches Hg (1026.2 mb)
Winds: from the N (350 degrees) at 5 MPH (4 knots; 2.1 m/s)
Visibility: 10 or more miles (16+ km)
Ceiling: 5500 feet AGL
Clouds: broken clouds at 5500 feet AGL
Present Weather: automated observation with no human augmentation;
there may or may not be significant weather present at this time
KZPH 161955Z AUTO 35004KT 10SM BKN055 22/07 A3030 RMK AO2 T02240073

Conditions at: KZPH observed 16 January 2018  19:35 UTC
Temperature: 21.4°C (71°F)
Dewpoint: 7.1°C (45°F) [RH = 40%]
Pressure (altimeter): 30.30 inches Hg (1026.2 mb)
Winds: from the ESE (110 degrees) at 6 MPH (5 knots; 2.6 m/s)
Visibility: 10 or more miles (16+ km)
Ceiling: at least 12,000 feet AGL
Clouds: scattered clouds at 5500 feet AGL
Present Weather: automated observation with no human augmentation;
there may or may not be significant weather present at this time
KZPH 161935Z AUTO 11005KT 10SM SCT055 21/07 A3030 RMK AO2 T02140071

Conditions at: KZPH observed 16 January 2018  19:15 UTC
Temperature: 21.9°C (71°F)
Dewpoint: 7.8°C (46°F) [RH = 40%]
Pressure (altimeter): 30.31 inches Hg (1026.5 mb)
Winds: from the ENE (60 degrees) at 7 MPH (6 knots; 3.1 m/s)
Visibility: 10 or more miles (16+ km)
Ceiling: at least 12,000 feet AGL
Clouds: scattered clouds at 5500 feet AGL
Present Weather: automated observation with no human augmentation;
there may or may not be significant weather present at this time
KZPH 161915Z AUTO 06006KT 10SM SCT055 22/08 A3031 RMK AO2 T02190078

Conditions at: KZPH observed 16 January 2018  18:55 UTC
Temperature: 21.3°C (70°F)
Dewpoint: 6.9°C (44°F) [RH = 39%]
Pressure (altimeter): 30.33 inches Hg (1027.2 mb)
Winds: calm
Visibility: 10 or more miles (16+ km)
Ceiling: at least 12,000 feet AGL
Clouds: sky clear below 12,000 feet AGL
Present Weather: automated observation with no human augmentation;
there may or may not be significant weather present at this time
KZPH 161855Z AUTO 00000KT 10SM CLR 21/07 A3033 RMK AO2 T02130069

Conditions at: KZPH observed 16 January 2018  18:35 UTC
Temperature: 21.6°C (71°F)
Dewpoint: 8.4°C (47°F) [RH = 43%]
Pressure (altimeter): 30.34 inches Hg (1027.5 mb)
Winds: from the NNE (30 degrees) at 7 MPH (6 knots; 3.1 m/s)
Visibility: 10 or more miles (16+ km)
Ceiling: at least 12,000 feet AGL
Clouds: sky clear below 12,000 feet AGL
Present Weather: automated observation with no human augmentation;
there may or may not be significant weather present at this time
KZPH 161835Z AUTO 03006KT 10SM CLR 22/08 A3034 RMK AO2 T02160084

Conditions at: KZPH observed 16 January 2018  18:15 UTC
Temperature: 21.5°C (71°F)
Dewpoint: 8.7°C (48°F) [RH = 44%]
Pressure (altimeter): 30.35 inches Hg (1027.9 mb)
Winds: from the E (90 degrees) at 6 MPH (5 knots; 2.6 m/s)
Visibility: 10 or more miles (16+ km)
Ceiling: at least 12,000 feet AGL
Clouds: sky clear below 12,000 feet AGL
Present Weather: automated observation with no human augmentation;
there may or may not be significant weather present at this time
KZPH 161815Z AUTO 09005KT 10SM CLR 22/09 A3035 RMK AO2 T02150087

Conditions at: KZPH observed 16 January 2018  17:55 UTC
Temperature: 20.9°C (70°F)
Dewpoint: 9.7°C (49°F) [RH = 49%]
Pressure (altimeter): 30.36 inches Hg (1028.2 mb)
Winds: from the NE (50 degrees) at 7 MPH (6 knots; 3.1 m/s)
Visibility: 10 or more miles (16+ km)
Ceiling: at least 12,000 feet AGL
Clouds: sky clear below 12,000 feet AGL
Present Weather: automated observation with no human augmentation;
there may or may not be significant weather present at this time
KZPH 161755Z AUTO 05006KT 10SM CLR 21/10 A3036 RMK AO2 T02090097 10209 20050

Conditions at: KZPH observed 16 January 2018  17:35 UTC
Temperature: 20.6°C (69°F)
Dewpoint: 9.9°C (50°F) [RH = 50%]
Pressure (altimeter): 30.37 inches Hg (1028.5 mb)
Winds: from the E (100 degrees) at 8 MPH (7 knots; 3.6 m/s)
Visibility: 10 or more miles (16+ km)
Ceiling: at least 12,000 feet AGL
Clouds: sky clear below 12,000 feet AGL
Present Weather: automated observation with no human augmentation;
there may or may not be significant weather present at this time
KZPH 161735Z AUTO 10007KT 10SM CLR 21/10 A3037 RMK AO2 T02060099

Conditions at: KZPH observed 16 January 2018  17:15 UTC
Temperature: 20.1°C (68°F)
Dewpoint: 10.0°C (50°F) [RH = 52%]
Pressure (altimeter): 30.38 inches Hg (1028.9 mb)
Winds: from the E (80 degrees) at 10 MPH (9 knots; 4.7 m/s)
Visibility: 10 or more miles (16+ km)
Ceiling: at least 12,000 feet AGL
Clouds: sky clear below 12,000 feet AGL
Present Weather: automated observation with no human augmentation;
there may or may not be significant weather present at this time
KZPH 161715Z AUTO 08009KT 10SM CLR 20/10 A3038 RMK AO2 T02010100

Conditions at: KZPH observed 16 January 2018  16:55 UTC
Temperature: 19.0°C (66°F)
Dewpoint: 10.0°C (50°F) [RH = 56%]
Pressure (altimeter): 30.39 inches Hg (1029.2 mb)
Winds: from the ENE (70 degrees) at 6 MPH (5 knots; 2.6 m/s)
Visibility: 10 or more miles (16+ km)
Ceiling: at least 12,000 feet AGL
Clouds: sky clear below 12,000 feet AGL
Present Weather: automated observation with no human augmentation;
there may or may not be significant weather present at this time
KZPH 161655Z AUTO 07005KT 10SM CLR 19/10 A3039 RMK AO2 T01900100

Conditions at: KZPH observed 16 January 2018  16:35 UTC
Temperature: 18.6°C (65°F)
Dewpoint: 9.9°C (50°F) [RH = 57%]
Pressure (altimeter): 30.39 inches Hg (1029.2 mb)
Winds: from the ENE (70 degrees) at 7 MPH (6 knots; 3.1 m/s)
Visibility: 10 or more miles (16+ km)
Ceiling: at least 12,000 feet AGL
Clouds: sky clear below 12,000 feet AGL
Present Weather: automated observation with no human augmentation;
there may or may not be significant weather present at this time
KZPH 161635Z AUTO 07006KT 10SM CLR 19/10 A3039 RMK AO2 T01860099

Conditions at: KZPH observed 16 January 2018  16:15 UTC
Temperature: 17.2°C (63°F)
Dewpoint: 9.5°C (49°F) [RH = 61%]
Pressure (altimeter): 30.40 inches Hg (1029.5 mb)
Winds: from the E (80 degrees) at 6 MPH (5 knots; 2.6 m/s)
Visibility: 10 or more miles (16+ km)
Ceiling: at least 12,000 feet AGL
Clouds: sky clear below 12,000 feet AGL
Present Weather: automated observation with no human augmentation;
there may or may not be significant weather present at this time
KZPH 161615Z AUTO 08005KT 10SM CLR 17/10 A3040 RMK AO2 T01720095

Conditions at: KZPH observed 16 January 2018  15:35 UTC
Temperature: 14.4°C (58°F)
Dewpoint: 8.6°C (47°F) [RH = 68%]
Pressure (altimeter): 30.40 inches Hg (1029.5 mb)
Winds: from the NE (50 degrees) at 5 MPH (4 knots; 2.1 m/s)
Visibility: 10 or more miles (16+ km)
Ceiling: at least 12,000 feet AGL
Clouds: sky clear below 12,000 feet AGL
Present Weather: automated observation with no human augmentation;
there may or may not be significant weather present at this time
KZPH 161535Z AUTO 05004KT 10SM CLR 14/09 A3040 RMK AO2 T01440086

Conditions at: KZPH observed 16 January 2018  15:15 UTC
Temperature: 12.4°C (54°F)
Dewpoint: 8.1°C (47°F) [RH = 75%]
Pressure (altimeter): 30.40 inches Hg (1029.5 mb)
Winds: from the NE (40 degrees) at 7 MPH (6 knots; 3.1 m/s)
Visibility: 10 or more miles (16+ km)
Ceiling: at least 12,000 feet AGL
Clouds: sky clear below 12,000 feet AGL
Present Weather: automated observation with no human augmentation;
there may or may not be significant weather present at this time
KZPH 161515Z AUTO 04006KT 10SM CLR 12/08 A3040 RMK AO2 T01240081

Conditions at: KZPH observed 16 January 2018  14:55 UTC
Temperature: 11.1°C (52°F)
Dewpoint: 7.7°C (46°F) [RH = 80%]
Pressure (altimeter): 30.40 inches Hg (1029.5 mb)
Winds: from the NE (40 degrees) at 7 MPH (6 knots; 3.1 m/s)
Visibility: 10 or more miles (16+ km)
Ceiling: at least 12,000 feet AGL
Clouds: sky clear below 12,000 feet AGL
Present Weather: automated observation with no human augmentation;
there may or may not be significant weather present at this time
KZPH 161455Z AUTO 04006KT 10SM CLR 11/08 A3040 RMK AO2 T01110077

Conditions at: KZPH observed 16 January 2018  14:35 UTC
Temperature: 9.6°C (49°F)
Dewpoint: 7.1°C (45°F) [RH = 84%]
Pressure (altimeter): 30.39 inches Hg (1029.2 mb)
Winds: from the NNE (30 degrees) at 8 MPH (7 knots; 3.6 m/s)
Visibility: 10 or more miles (16+ km)
Ceiling: at least 12,000 feet AGL
Clouds: sky clear below 12,000 feet AGL
Present Weather: automated observation with no human augmentation;
there may or may not be significant weather present at this time
KZPH 161435Z AUTO 03007KT 10SM CLR 10/07 A3039 RMK AO2 T00960071

Conditions at: KZPH observed 16 January 2018  14:15 UTC
Temperature: 8.4°C (47°F)
Dewpoint: 6.4°C (44°F) [RH = 87%]
Pressure (altimeter): 30.39 inches Hg (1029.2 mb)
Winds: from the NNE (30 degrees) at 7 MPH (6 knots; 3.1 m/s)
Visibility: 10 or more miles (16+ km)
Ceiling: at least 12,000 feet AGL
Clouds: sky clear below 12,000 feet AGL
Present Weather: automated observation with no human augmentation;
there may or may not be significant weather present at this time
KZPH 161415Z AUTO 03006KT 10SM CLR 08/06 A3039 RMK AO2 T00840064

Conditions at: KZPH observed 16 January 2018  13:55 UTC
Temperature: 7.1°C (45°F)
Dewpoint: 5.7°C (42°F) [RH = 91%]
Pressure (altimeter): 30.38 inches Hg (1028.9 mb)
Winds: from the NNE (20 degrees) at 5 MPH (4 knots; 2.1 m/s)
Visibility: 10 or more miles (16+ km)
Ceiling: at least 12,000 feet AGL
Clouds: sky clear below 12,000 feet AGL
Present Weather: automated observation with no human augmentation;
there may or may not be significant weather present at this time
KZPH 161355Z AUTO 02004KT 10SM CLR 07/06 A3038 RMK AO2 T00710057

Conditions at: KZPH observed 16 January 2018  13:35 UTC
Temperature: 6.1°C (43°F)
Dewpoint: 5.3°C (42°F) [RH = 95%]
Pressure (altimeter): 30.38 inches Hg (1028.9 mb)
Winds: from the NNE (20 degrees) at 3 MPH (3 knots; 1.6 m/s)
Visibility: 10 or more miles (16+ km)
Ceiling: at least 12,000 feet AGL
Clouds: sky clear below 12,000 feet AGL
Present Weather: automated observation with no human augmentation;
there may or may not be significant weather present at this time
KZPH 161335Z AUTO 02003KT 10SM CLR 06/05 A3038 RMK AO2 T00610053

Conditions at: KZPH observed 16 January 2018  13:15 UTC
Temperature: 5.3°C (42°F)
Dewpoint: 4.6°C (40°F) [RH = 95%]
Pressure (altimeter): 30.38 inches Hg (1028.9 mb)
Winds: from the N (10 degrees) at 5 MPH (4 knots; 2.1 m/s)
Visibility: 10 or more miles (16+ km)
Ceiling: at least 12,000 feet AGL
Clouds: sky clear below 12,000 feet AGL
Present Weather: automated observation with no human augmentation;
there may or may not be significant weather present at this time
KZPH 161315Z AUTO 01004KT 10SM CLR 05/05 A3038 RMK AO2 T00530046

Conditions at: KZPH observed 16 January 2018  12:55 UTC
Temperature: 5.0°C (41°F)
Dewpoint: 4.3°C (40°F) [RH = 95%]
Pressure (altimeter): 30.37 inches Hg (1028.5 mb)
Winds: from the NNE (20 degrees) at 3 MPH (3 knots; 1.6 m/s)
Visibility: 10 or more miles (16+ km)
Ceiling: at least 12,000 feet AGL
Clouds: sky clear below 12,000 feet AGL
Present Weather: automated observation with no human augmentation;
there may or may not be significant weather present at this time
KZPH 161255Z AUTO 02003KT 10SM CLR 05/04 A3037 RMK AO2 T00500043

Conditions at: KZPH observed 16 January 2018  12:35 UTC
Temperature: 5.2°C (41°F)
Dewpoint: 4.5°C (40°F) [RH = 95%]
Pressure (altimeter): 30.37 inches Hg (1028.5 mb)
Winds: from the NNE (20 degrees) at 5 MPH (4 knots; 2.1 m/s)
Visibility: 10 or more miles (16+ km)
Ceiling: at least 12,000 feet AGL
Clouds: scattered clouds at 6500 feet AGL
Present Weather: automated observation with no human augmentation;
there may or may not be significant weather present at this time
KZPH 161235Z AUTO 02004KT 10SM SCT065 05/05 A3037 RMK AO2 T00520045

Conditions at: KZPH observed 16 January 2018  12:15 UTC
Temperature: 5.3°C (42°F)
Dewpoint: 4.5°C (40°F) [RH = 95%]
Pressure (altimeter): 30.37 inches Hg (1028.5 mb)
Winds: from the NNE (20 degrees) at 5 MPH (4 knots; 2.1 m/s)
Visibility: 10 or more miles (16+ km)
Ceiling: at least 12,000 feet AGL
Clouds: scattered clouds at 6500 feet AGL
Present Weather: automated observation with no human augmentation;
there may or may not be significant weather present at this time
KZPH 161215Z AUTO 02004KT 10SM SCT065 05/05 A3037 RMK AO2 T00530045

Conditions at: KZPH observed 16 January 2018  11:55 UTC
Temperature: 5.5°C (42°F)
Dewpoint: 4.5°C (40°F) [RH = 93%]
Pressure (altimeter): 30.37 inches Hg (1028.5 mb)
Winds: from the N (10 degrees) at 5 MPH (4 knots; 2.1 m/s)
Visibility: 10 or more miles (16+ km)
Ceiling: 6500 feet AGL
Clouds: broken clouds at 6500 feet AGL
Present Weather: automated observation with no human augmentation;
there may or may not be significant weather present at this time
KZPH 161155Z AUTO 01004KT 10SM BKN065 06/05 A3037 RMK AO2 T00550045 10062 20048

Conditions at: KZPH observed 16 January 2018  11:35 UTC
Temperature: 5.6°C (42°F)
Dewpoint: 4.6°C (40°F) [RH = 93%]
Pressure (altimeter): 30.36 inches Hg (1028.2 mb)
Winds: from the NNE (20 degrees) at 5 MPH (4 knots; 2.1 m/s)
Visibility: 10 or more miles (16+ km)
Ceiling: 6500 feet AGL
Clouds: broken clouds at 6500 feet AGL
Present Weather: automated observation with no human augmentation;
there may or may not be significant weather present at this time
KZPH 161135Z AUTO 02004KT 10SM BKN065 06/05 A3036 RMK AO2 T00560046

Conditions at: KZPH observed 16 January 2018  11:15 UTC
Temperature: 5.5°C (42°F)
Dewpoint: 4.5°C (40°F) [RH = 93%]
Pressure (altimeter): 30.36 inches Hg (1028.2 mb)
Winds: from the NNE (20 degrees) at 5 MPH (4 knots; 2.1 m/s)
Visibility: 10 or more miles (16+ km)
Ceiling: at least 12,000 feet AGL
Clouds: scattered clouds at 6500 feet AGL
Present Weather: automated observation with no human augmentation;
there may or may not be significant weather present at this time
KZPH 161115Z AUTO 02004KT 10SM SCT065 06/05 A3036 RMK AO2 T00550045

Conditions at: KZPH observed 16 January 2018  10:55 UTC
Temperature: 5.3°C (42°F)
Dewpoint: 4.4°C (40°F) [RH = 94%]
Pressure (altimeter): 30.35 inches Hg (1027.9 mb)
Winds: from the NNE (20 degrees) at 7 MPH (6 knots; 3.1 m/s)
Visibility: 10 or more miles (16+ km)
Ceiling: at least 12,000 feet AGL
Clouds: scattered clouds at 6500 feet AGL
Present Weather: automated observation with no human augmentation;
there may or may not be significant weather present at this time
KZPH 161055Z AUTO 02006KT 10SM SCT065 05/04 A3035 RMK AO2 T00530044

Conditions at: KZPH observed 16 January 2018  10:35 UTC
Temperature: 5.0°C (41°F)
Dewpoint: 4.0°C (39°F) [RH = 93%]
Pressure (altimeter): 30.35 inches Hg (1027.9 mb)
Winds: from the N (10 degrees) at 6 MPH (5 knots; 2.6 m/s)
Visibility: 10 or more miles (16+ km)
Ceiling: at least 12,000 feet AGL
Clouds: scattered clouds at 6500 feet AGL
Present Weather: automated observation with no human augmentation;
there may or may not be significant weather present at this time
KZPH 161035Z AUTO 01005KT 10SM SCT065 05/04 A3035 RMK AO2 T00500040

Conditions at: KZPH observed 16 January 2018  10:15 UTC
Temperature: 4.9°C (41°F)
Dewpoint: 3.8°C (39°F) [RH = 93%]
Pressure (altimeter): 30.35 inches Hg (1027.9 mb)
Winds: from the N (10 degrees) at 5 MPH (4 knots; 2.1 m/s)
Visibility: 10 or more miles (16+ km)
Ceiling: at least 12,000 feet AGL
Clouds: scattered clouds at 7000 feet AGL
Present Weather: automated observation with no human augmentation;
there may or may not be significant weather present at this time
KZPH 161015Z AUTO 01004KT 10SM SCT070 05/04 A3035 RMK AO2 T00490038

Conditions at: KZPH observed 16 January 2018  09:55 UTC
Temperature: 5.1°C (41°F)
Dewpoint: 4.0°C (39°F) [RH = 93%]
Pressure (altimeter): 30.34 inches Hg (1027.5 mb)
Winds: from the NNE (20 degrees) at 5 MPH (4 knots; 2.1 m/s)
Visibility: 10 or more miles (16+ km)
Ceiling: at least 12,000 feet AGL
Clouds: scattered clouds at 7000 feet AGL
Present Weather: automated observation with no human augmentation;
there may or may not be significant weather present at this time
KZPH 160955Z AUTO 02004KT 10SM SCT070 05/04 A3034 RMK AO2 T00510040

Conditions at: KZPH observed 16 January 2018  09:35 UTC
Temperature: 5.2°C (41°F)
Dewpoint: 4.1°C (39°F) [RH = 93%]
Pressure (altimeter): 30.35 inches Hg (1027.9 mb)
Winds: from the N (10 degrees) at 6 MPH (5 knots; 2.6 m/s)
Visibility: 10 or more miles (16+ km)
Ceiling: at least 12,000 feet AGL
Clouds: scattered clouds at 7000 feet AGL
Present Weather: automated observation with no human augmentation;
there may or may not be significant weather present at this time
KZPH 160935Z AUTO 01005KT 10SM SCT070 05/04 A3035 RMK AO2 T00520041

Conditions at: KZPH observed 16 January 2018  09:15 UTC
Temperature: 5.5°C (42°F)
Dewpoint: 4.1°C (39°F) [RH = 91%]
Pressure (altimeter): 30.35 inches Hg (1027.9 mb)
Winds: from the N (10 degrees) at 5 MPH (4 knots; 2.1 m/s)
Visibility: 10 or more miles (16+ km)
Ceiling: 7000 feet AGL
Clouds: broken clouds at 7000 feet AGL
Present Weather: automated observation with no human augmentation;
there may or may not be significant weather present at this time
KZPH 160915Z AUTO 01004KT 10SM BKN070 06/04 A3035 RMK AO2 T00550041

Conditions at: KZPH observed 16 January 2018  08:55 UTC
Temperature: 5.3°C (42°F)
Dewpoint: 4.0°C (39°F) [RH = 91%]
Pressure (altimeter): 30.35 inches Hg (1027.9 mb)
Winds: from the N (10 degrees) at 3 MPH (3 knots; 1.6 m/s)
Visibility: 10 or more miles (16+ km)
Ceiling: 7000 feet AGL
Clouds: broken clouds at 7000 feet AGL
Present Weather: automated observation with no human augmentation;
there may or may not be significant weather present at this time
KZPH 160855Z AUTO 01003KT 10SM BKN070 05/04 A3035 RMK AO2 T00530040

Conditions at: KZPH observed 16 January 2018  08:35 UTC
Temperature: 5.5°C (42°F)
Dewpoint: 4.1°C (39°F) [RH = 91%]
Pressure (altimeter): 30.35 inches Hg (1027.9 mb)
Winds: from the NNE (20 degrees) at 5 MPH (4 knots; 2.1 m/s)
Visibility: 10 or more miles (16+ km)
Ceiling: 6000 feet AGL
Clouds: broken clouds at 6000 feet AGL
Present Weather: automated observation with no human augmentation;
there may or may not be significant weather present at this time
KZPH 160835Z AUTO 02004KT 10SM BKN060 06/04 A3035 RMK AO2 T00550041

Conditions at: KZPH observed 16 January 2018  08:15 UTC
Temperature: 5.5°C (42°F)
Dewpoint: 4.0°C (39°F) [RH = 90%]
Pressure (altimeter): 30.35 inches Hg (1027.9 mb)
Winds: from the N (10 degrees) at 3 MPH (3 knots; 1.6 m/s)
Visibility: 10 or more miles (16+ km)
Ceiling: 6000 feet AGL
Clouds: broken clouds at 6000 feet AGL
Present Weather: automated observation with no human augmentation;
there may or may not be significant weather present at this time
KZPH 160815Z AUTO 01003KT 10SM BKN060 06/04 A3035 RMK AO2 T00550040

Conditions at: KZPH observed 16 January 2018  07:55 UTC
Temperature: 5.3°C (42°F)
Dewpoint: 4.0°C (39°F) [RH = 91%]
Pressure (altimeter): 30.35 inches Hg (1027.9 mb)
Winds: from the N (10 degrees) at 3 MPH (3 knots; 1.6 m/s)
Visibility: 10 or more miles (16+ km)
Ceiling: 6000 feet AGL
Clouds: broken clouds at 6000 feet AGL
Present Weather: automated observation with no human augmentation;
there may or may not be significant weather present at this time
KZPH 160755Z AUTO 01003KT 10SM BKN060 05/04 A3035 RMK AO2 T00530040

Conditions at: KZPH observed 16 January 2018  07:35 UTC
Temperature: 5.2°C (41°F)
Dewpoint: 3.7°C (39°F) [RH = 90%]
Pressure (altimeter): 30.36 inches Hg (1028.2 mb)
Winds: from the N (360 degrees) at 5 MPH (4 knots; 2.1 m/s)
Visibility: 10 or more miles (16+ km)
Ceiling: at least 12,000 feet AGL
Clouds: scattered clouds at 6000 feet AGL
Present Weather: automated observation with no human augmentation;
there may or may not be significant weather present at this time
KZPH 160735Z AUTO 36004KT 10SM SCT060 05/04 A3036 RMK AO2 T00520037

Conditions at: KZPH observed 16 January 2018  07:15 UTC
Temperature: 5.4°C (42°F)
Dewpoint: 3.7°C (39°F) [RH = 89%]
Pressure (altimeter): 30.36 inches Hg (1028.2 mb)
Winds: from the N (10 degrees) at 5 MPH (4 knots; 2.1 m/s)
Visibility: 10 or more miles (16+ km)
Ceiling: at least 12,000 feet AGL
Clouds: scattered clouds at 6000 feet AGL
Present Weather: automated observation with no human augmentation;
there may or may not be significant weather present at this time
KZPH 160715Z AUTO 01004KT 10SM SCT060 05/04 A3036 RMK AO2 T00540037

Conditions at: KZPH observed 16 January 2018  06:55 UTC
Temperature: 6.0°C (43°F)
Dewpoint: 4.2°C (40°F) [RH = 88%]
Pressure (altimeter): 30.36 inches Hg (1028.2 mb)
Winds: from the NNE (20 degrees) at 6 MPH (5 knots; 2.6 m/s)
Visibility: 10 or more miles (16+ km)
Ceiling: at least 12,000 feet AGL
Clouds: scattered clouds at 6000 feet AGL
Present Weather: automated observation with no human augmentation;
there may or may not be significant weather present at this time
KZPH 160655Z AUTO 02005KT 10SM SCT060 06/04 A3036 RMK AO2 T00600042

Conditions at: KZPH observed 16 January 2018  06:35 UTC
Temperature: 5.7°C (42°F)
Dewpoint: 4.0°C (39°F) [RH = 89%]
Pressure (altimeter): 30.37 inches Hg (1028.5 mb)
Winds: from the NNE (20 degrees) at 6 MPH (5 knots; 2.6 m/s)
Visibility: 10 or more miles (16+ km)
Ceiling: at least 12,000 feet AGL
Clouds: sky clear below 12,000 feet AGL
Present Weather: automated observation with no human augmentation;
there may or may not be significant weather present at this time
KZPH 160635Z AUTO 02005KT 10SM CLR 06/04 A3037 RMK AO2 T00570040

Conditions at: KZPH observed 16 January 2018  06:15 UTC
Temperature: 5.8°C (42°F)
Dewpoint: 3.8°C (39°F) [RH = 87%]
Pressure (altimeter): 30.37 inches Hg (1028.5 mb)
Winds: from the NNE (20 degrees) at 6 MPH (5 knots; 2.6 m/s)
Visibility: 10 or more miles (16+ km)
Ceiling: at least 12,000 feet AGL
Clouds: scattered clouds at 6000 feet AGL
Present Weather: automated observation with no human augmentation;
there may or may not be significant weather present at this time
KZPH 160615Z AUTO 02005KT 10SM SCT060 06/04 A3037 RMK AO2 T00580038

Conditions at: KZPH observed 16 January 2018  05:35 UTC
Temperature: 6.6°C (44°F)
Dewpoint: 4.2°C (40°F) [RH = 85%]
Pressure (altimeter): 30.38 inches Hg (1028.9 mb)
Winds: from the NNE (20 degrees) at 8 MPH (7 knots; 3.6 m/s)
Visibility: 10 or more miles (16+ km)
Ceiling: at least 12,000 feet AGL
Clouds: scattered clouds at 6000 feet AGL
Present Weather: automated observation with no human augmentation;
there may or may not be significant weather present at this time
KZPH 160535Z AUTO 02007KT 10SM SCT060 07/04 A3038 RMK AO2 T00660042

Conditions at: KZPH observed 16 January 2018  05:15 UTC
Temperature: 6.7°C (44°F)
Dewpoint: 4.0°C (39°F) [RH = 83%]
Pressure (altimeter): 30.38 inches Hg (1028.9 mb)
Winds: from the N (10 degrees) at 6 MPH (5 knots; 2.6 m/s)
Visibility: 10 or more miles (16+ km)
Ceiling: at least 12,000 feet AGL
Clouds: sky clear below 12,000 feet AGL
Present Weather: automated observation with no human augmentation;
there may or may not be significant weather present at this time
KZPH 160515Z AUTO 01005KT 10SM CLR 07/04 A3038 RMK AO2 T00670040

Conditions at: KZPH observed 16 January 2018  04:55 UTC
Temperature: 7.1°C (45°F)
Dewpoint: 3.8°C (39°F) [RH = 79%]
Pressure (altimeter): 30.38 inches Hg (1028.9 mb)
Winds: from the NNE (20 degrees) at 7 MPH (6 knots; 3.1 m/s)
Visibility: 10 or more miles (16+ km)
Ceiling: at least 12,000 feet AGL
Clouds: sky clear below 12,000 feet AGL
Present Weather: automated observation with no human augmentation;
there may or may not be significant weather present at this time
KZPH 160455Z AUTO 02006KT 10SM CLR 07/04 A3038 RMK AO2 T00710038

Conditions at: KZPH observed 16 January 2018  04:35 UTC
Temperature: 7.2°C (45°F)
Dewpoint: 3.6°C (38°F) [RH = 78%]
Pressure (altimeter): 30.39 inches Hg (1029.2 mb)
Winds: from the NNE (20 degrees) at 7 MPH (6 knots; 3.1 m/s)
Visibility: 10 or more miles (16+ km)
Ceiling: at least 12,000 feet AGL
Clouds: sky clear below 12,000 feet AGL
Present Weather: automated observation with no human augmentation;
there may or may not be significant weather present at this time
KZPH 160435Z AUTO 02006KT 10SM CLR 07/04 A3039 RMK AO2 T00720036

Conditions at: KZPH observed 16 January 2018  04:15 UTC
Temperature: 7.8°C (46°F)
Dewpoint: 3.6°C (38°F) [RH = 75%]
Pressure (altimeter): 30.39 inches Hg (1029.2 mb)
Winds: from the NE (40 degrees) at 8 MPH (7 knots; 3.6 m/s)
Visibility: 10 or more miles (16+ km)
Ceiling: at least 12,000 feet AGL
Clouds: sky clear below 12,000 feet AGL
Present Weather: automated observation with no human augmentation;
there may or may not be significant weather present at this time
KZPH 160415Z AUTO 04007KT 10SM CLR 08/04 A3039 RMK AO2 T00780036

Conditions at: KZPH observed 16 January 2018  03:55 UTC
Temperature: 8.2°C (47°F)
Dewpoint: 3.5°C (38°F) [RH = 72%]
Pressure (altimeter): 30.39 inches Hg (1029.2 mb)
Winds: from the NE (40 degrees) at 8 MPH (7 knots; 3.6 m/s)
Visibility: 10 or more miles (16+ km)
Ceiling: at least 12,000 feet AGL
Clouds: sky clear below 12,000 feet AGL
Present Weather: automated observation with no human augmentation;
there may or may not be significant weather present at this time
KZPH 160355Z AUTO 04007KT 10SM CLR 08/04 A3039 RMK AO2 T00820035

Conditions at: KZPH observed 16 January 2018  03:35 UTC
Temperature: 8.5°C (47°F)
Dewpoint: 3.4°C (38°F) [RH = 70%]
Pressure (altimeter): 30.39 inches Hg (1029.2 mb)
Winds: from the NE (40 degrees) at 7 MPH (6 knots; 3.1 m/s)
Visibility: 10 or more miles (16+ km)
Ceiling: at least 12,000 feet AGL
Clouds: sky clear below 12,000 feet AGL
Present Weather: automated observation with no human augmentation;
there may or may not be significant weather present at this time
KZPH 160335Z AUTO 04006KT 10SM CLR 09/03 A3039 RMK AO2 T00850034

Conditions at: KZPH observed 16 January 2018  03:15 UTC
Temperature: 8.6°C (47°F)
Dewpoint: 3.0°C (37°F) [RH = 68%]
Pressure (altimeter): 30.38 inches Hg (1028.9 mb)
Winds: from the NE (40 degrees) at 7 MPH (6 knots; 3.1 m/s)
Visibility: 10 or more miles (16+ km)
Ceiling: at least 12,000 feet AGL
Clouds: sky clear below 12,000 feet AGL
Present Weather: automated observation with no human augmentation;
there may or may not be significant weather present at this time
KZPH 160315Z AUTO 04006KT 10SM CLR 09/03 A3038 RMK AO2 T00860030

Conditions at: KZPH observed 16 January 2018  02:55 UTC
Temperature: 9.3°C (49°F)
Dewpoint: 3.2°C (38°F) [RH = 66%]
Pressure (altimeter): 30.38 inches Hg (1028.9 mb)
Winds: from the NNE (30 degrees) at 8 MPH (7 knots; 3.6 m/s)
Visibility: 10 or more miles (16+ km)
Ceiling: at least 12,000 feet AGL
Clouds: sky clear below 12,000 feet AGL
Present Weather: automated observation with no human augmentation;
there may or may not be significant weather present at this time
KZPH 160255Z AUTO 03007KT 10SM CLR 09/03 A3038 RMK AO2 T00930032

Conditions at: KZPH observed 16 January 2018  02:35 UTC
Temperature: 9.2°C (49°F)
Dewpoint: 3.5°C (38°F) [RH = 67%]
Pressure (altimeter): 30.38 inches Hg (1028.9 mb)
Winds: from the NE (40 degrees) at 7 MPH (6 knots; 3.1 m/s)
Visibility: 10 or more miles (16+ km)
Ceiling: at least 12,000 feet AGL
Clouds: sky clear below 12,000 feet AGL
Present Weather: automated observation with no human augmentation;
there may or may not be significant weather present at this time
KZPH 160235Z AUTO 04006KT 10SM CLR 09/04 A3038 RMK AO2 T00920035

Conditions at: KZPH observed 16 January 2018  02:15 UTC
Temperature: 9.6°C (49°F)
Dewpoint: 3.5°C (38°F) [RH = 66%]
Pressure (altimeter): 30.38 inches Hg (1028.9 mb)
Winds: from the NE (40 degrees) at 7 MPH (6 knots; 3.1 m/s)
Visibility: 10 or more miles (16+ km)
Ceiling: at least 12,000 feet AGL
Clouds: sky clear below 12,000 feet AGL
Present Weather: automated observation with no human augmentation;
there may or may not be significant weather present at this time
KZPH 160215Z AUTO 04006KT 10SM CLR 10/04 A3038 RMK AO2 T00960035

Conditions at: KZPH observed 16 January 2018  01:55 UTC
Temperature: 10.2°C (50°F)
Dewpoint: 4.0°C (39°F) [RH = 65%]
Pressure (altimeter): 30.38 inches Hg (1028.9 mb)
Winds: from the NE (50 degrees) at 8 MPH (7 knots; 3.6 m/s)
Visibility: 10 or more miles (16+ km)
Ceiling: at least 12,000 feet AGL
Clouds: sky clear below 12,000 feet AGL
Present Weather: automated observation with no human augmentation;
there may or may not be significant weather present at this time
KZPH 160155Z AUTO 05007KT 10SM CLR 10/04 A3038 RMK AO2 T01020040

Conditions at: KZPH observed 16 January 2018  01:35 UTC
Temperature: 11.3°C (52°F)
Dewpoint: 4.3°C (40°F) [RH = 62%]
Pressure (altimeter): 30.37 inches Hg (1028.5 mb)
Winds: from the ENE (60 degrees) at 7 MPH (6 knots; 3.1 m/s)
Visibility: 10 or more miles (16+ km)
Ceiling: at least 12,000 feet AGL
Clouds: sky clear below 12,000 feet AGL
Present Weather: automated observation with no human augmentation;
there may or may not be significant weather present at this time
KZPH 160135Z AUTO 06006KT 10SM CLR 11/04 A3037 RMK AO2 T01130043

Conditions at: KZPH observed 16 January 2018  01:15 UTC
Temperature: 11.3°C (52°F)
Dewpoint: 4.7°C (40°F) [RH = 64%]
Pressure (altimeter): 30.36 inches Hg (1028.2 mb)
Winds: from the NE (40 degrees) at 8 MPH (7 knots; 3.6 m/s)
Visibility: 10 or more miles (16+ km)
Ceiling: at least 12,000 feet AGL
Clouds: sky clear below 12,000 feet AGL
Present Weather: automated observation with no human augmentation;
there may or may not be significant weather present at this time
KZPH 160115Z AUTO 04007KT 10SM CLR 11/05 A3036 RMK AO2 T01130047

Conditions at: KZPH observed 16 January 2018  00:55 UTC
Temperature: 11.2°C (52°F)
Dewpoint: 5.5°C (42°F) [RH = 68%]
Pressure (altimeter): 30.36 inches Hg (1028.2 mb)
Winds: from the NNE (30 degrees) at 8 MPH (7 knots; 3.6 m/s)
Visibility: 10 or more miles (16+ km)
Ceiling: at least 12,000 feet AGL
Clouds: sky clear below 12,000 feet AGL
Present Weather: automated observation with no human augmentation;
there may or may not be significant weather present at this time
KZPH 160055Z AUTO 03007KT 10SM CLR 11/06 A3036 RMK AO2 T01120055

Conditions at: KZPH observed 16 January 2018  00:35 UTC
Temperature: 12.1°C (54°F)
Dewpoint: 5.8°C (42°F) [RH = 65%]
Pressure (altimeter): 30.36 inches Hg (1028.2 mb)
Winds: from the NE (40 degrees) at 7 MPH (6 knots; 3.1 m/s)
Visibility: 10 or more miles (16+ km)
Ceiling: at least 12,000 feet AGL
Clouds: sky clear below 12,000 feet AGL
Present Weather: automated observation with no human augmentation;
there may or may not be significant weather present at this time
KZPH 160035Z AUTO 04006KT 10SM CLR 12/06 A3036 RMK AO2 T01210058

Conditions at: KZPH observed 15 January 2018  23:55 UTC
Temperature: 13.7°C (57°F)
Dewpoint: 6.5°C (44°F) [RH = 62%]
Pressure (altimeter): 30.34 inches Hg (1027.5 mb)
Winds: from the NNE (30 degrees) at 9 MPH (8 knots; 4.2 m/s)
Visibility: 10 or more miles (16+ km)
Ceiling: at least 12,000 feet AGL
Clouds: sky clear below 12,000 feet AGL
Present Weather: automated observation with no human augmentation;
there may or may not be significant weather present at this time
KZPH 152355Z AUTO 03008KT 10SM CLR 14/07 A3034 RMK AO2 T01370065 10195 20137

Conditions at: KZPH observed 15 January 2018  23:35 UTC
Temperature: 14.5°C (58°F)
Dewpoint: 6.6°C (44°F) [RH = 59%]
Pressure (altimeter): 30.33 inches Hg (1027.2 mb)
Winds: from the NNE (30 degrees) at 12 MPH (10 knots; 5.2 m/s)
Visibility: 10 or more miles (16+ km)
Ceiling: at least 12,000 feet AGL
Clouds: sky clear below 12,000 feet AGL
Present Weather: automated observation with no human augmentation;
there may or may not be significant weather present at this time
KZPH 152335Z AUTO 03010KT 10SM CLR 15/07 A3033 RMK AO2 T01450066

Conditions at: KZPH observed 15 January 2018  23:15 UTC
Temperature: 15.7°C (60°F)
Dewpoint: 6.7°C (44°F) [RH = 55%]
Pressure (altimeter): 30.32 inches Hg (1026.8 mb)
Winds: from the NE (40 degrees) at 8 MPH (7 knots; 3.6 m/s)
Visibility: 10 or more miles (16+ km)
Ceiling: at least 12,000 feet AGL
Clouds: sky clear below 12,000 feet AGL
Present Weather: automated observation with no human augmentation;
there may or may not be significant weather present at this time
KZPH 152315Z AUTO 04007KT 10SM CLR 16/07 A3032 RMK AO2 T01570067

Conditions at: KZPH observed 15 January 2018  22:55 UTC
Temperature: 16.5°C (62°F)
Dewpoint: 6.6°C (44°F) [RH = 52%]
Pressure (altimeter): 30.32 inches Hg (1026.8 mb)
Winds: from the NE (40 degrees) at 9 MPH (8 knots; 4.2 m/s)
Visibility: 10 or more miles (16+ km)
Ceiling: at least 12,000 feet AGL
Clouds: sky clear below 12,000 feet AGL
Present Weather: automated observation with no human augmentation;
there may or may not be significant weather present at this time
KZPH 152255Z AUTO 04008KT 10SM CLR 17/07 A3032 RMK AO2 T01650066

Conditions at: KZPH observed 15 January 2018  22:35 UTC
Temperature: 17.2°C (63°F)
Dewpoint: 6.0°C (43°F) [RH = 48%]
Pressure (altimeter): 30.31 inches Hg (1026.5 mb)
Winds: from the NE (40 degrees) at 13 MPH (11 knots; 5.7 m/s)
Visibility: 10 or more miles (16+ km)
Ceiling: at least 12,000 feet AGL
Clouds: sky clear below 12,000 feet AGL
Present Weather: automated observation with no human augmentation;
there may or may not be significant weather present at this time
KZPH 152235Z AUTO 04011KT 10SM CLR 17/06 A3031 RMK AO2 T01720060